sensor_id;sensor_type;location;lat;lon;timestamp;pressure;altitude;pressure_sealevel;temperature;humidity
20043;BME280;10182;52.896;6.496;2023-07-31T00:03:29;100766.84;;;14.88;100.00
20043;BME280;10182;52.896;6.496;2023-07-31T00:08:31;100763.22;;;14.89;100.00
20043;BME280;10182;52.896;6.496;2023-07-31T00:13:32;100747.72;;;14.82;100.00
20043;BME280;10182;52.896;6.496;2023-07-31T00:18:35;100752.19;;;14.81;100.00
20043;BME280;10182;52.896;6.496;2023-07-31T00:23:37;100746.75;;;14.83;100.00
20043;BME280;10182;52.896;6.496;2023-07-31T00:28:39;100740.88;;;14.78;100.00
20043;BME280;10182;52.896;6.496;2023-07-31T00:33:42;100745.06;;;14.82;100.00
20043;BME280;10182;52.896;6.496;2023-07-31T00:38:44;100740.22;;;14.74;100.00
20043;BME280;10182;52.896;6.496;2023-07-31T00:43:46;100742.22;;;14.70;100.00
20043;BME280;10182;52.896;6.496;2023-07-31T00:48:49;100737.84;;;14.69;100.00
20043;BME280;10182;52.896;6.496;2023-07-31T00:53:51;100722.81;;;14.68;100.00
20043;BME280;10182;52.896;6.496;2023-07-31T00:58:56;100721.09;;;14.67;100.00
20043;BME280;10182;52.896;6.496;2023-07-31T01:03:59;100720.59;;;14.61;100.00
20043;BME280;10182;52.896;6.496;2023-07-31T01:09:03;100712.69;;;14.59;100.00
20043;BME280;10182;52.896;6.496;2023-07-31T01:14:05;100719.06;;;14.56;100.00
20043;BME280;10182;52.896;6.496;2023-07-31T01:19:09;100715.75;;;14.53;100.00
20043;BME280;10182;52.896;6.496;2023-07-31T01:24:22;100711.84;;;14.59;100.00
20043;BME280;10182;52.896;6.496;2023-07-31T01:29:34;100710.22;;;14.56;100.00
20043;BME280;10182;52.896;6.496;2023-07-31T01:34:39;100707.78;;;14.53;100.00
20043;BME280;10182;52.896;6.496;2023-07-31T01:39:42;100699.47;;;14.58;100.00
20043;BME280;10182;52.896;6.496;2023-07-31T01:44:45;100698.69;;;14.55;100.00
20043;BME280;10182;52.896;6.496;2023-07-31T01:49:47;100690.53;;;14.59;100.00
20043;BME280;10182;52.896;6.496;2023-07-31T01:54:48;100690.41;;;14.60;100.00
20043;BME280;10182;52.896;6.496;2023-07-31T01:59:51;100683.38;;;14.59;100.00
20043;BME280;10182;52.896;6.496;2023-07-31T02:04:54;100678.81;;;14.61;100.00
20043;BME280;10182;52.896;6.496;2023-07-31T02:09:55;100668.94;;;14.63;100.00
20043;BME280;10182;52.896;6.496;2023-07-31T02:14:58;100658.25;;;14.63;100.00
20043;BME280;10182;52.896;6.496;2023-07-31T02:20:00;100662.22;;;14.70;100.00
20043;BME280;10182;52.896;6.496;2023-07-31T02:25:02;100659.78;;;14.67;100.00
20043;BME280;10182;52.896;6.496;2023-07-31T02:30:06;100651.19;;;14.77;100.00
20043;BME280;10182;52.896;6.496;2023-07-31T02:35:08;100648.41;;;14.78;100.00
20043;BME280;10182;52.896;6.496;2023-07-31T02:40:10;100641.91;;;14.82;100.00
20043;BME280;10182;52.896;6.496;2023-07-31T02:45:14;100625.16;;;14.80;100.00
20043;BME280;10182;52.896;6.496;2023-07-31T02:50:15;100616.88;;;14.85;100.00
20043;BME280;10182;52.896;6.496;2023-07-31T02:55:17;100613.13;;;14.87;100.00
20043;BME280;10182;52.896;6.496;2023-07-31T03:00:20;100605.13;;;14.87;100.00
20043;BME280;10182;52.896;6.496;2023-07-31T03:05:22;100583.09;;;14.98;100.00
20043;BME280;10182;52.896;6.496;2023-07-31T03:10:23;100596.53;;;14.97;100.00
20043;BME280;10182;52.896;6.496;2023-07-31T03:15:26;100608.88;;;14.98;100.00
20043;BME280;10182;52.896;6.496;2023-07-31T03:20:28;100619.03;;;14.93;100.00
20043;BME280;10182;52.896;6.496;2023-07-31T03:25:30;100619.75;;;14.95;100.00
20043;BME280;10182;52.896;6.496;2023-07-31T03:30:35;100617.00;;;14.96;100.00
20043;BME280;10182;52.896;6.496;2023-07-31T03:35:38;100613.16;;;15.00;100.00
20043;BME280;10182;52.896;6.496;2023-07-31T03:40:40;100613.06;;;15.02;100.00
20043;BME280;10182;52.896;6.496;2023-07-31T03:45:43;100596.00;;;15.04;100.00
20043;BME280;10182;52.896;6.496;2023-07-31T03:50:45;100596.75;;;15.06;100.00
20043;BME280;10182;52.896;6.496;2023-07-31T03:55:46;100590.44;;;15.07;100.00
20043;BME280;10182;52.896;6.496;2023-07-31T04:00:49;100600.16;;;15.09;100.00
20043;BME280;10182;52.896;6.496;2023-07-31T04:05:53;100601.97;;;15.08;100.00
20043;BME280;10182;52.896;6.496;2023-07-31T04:10:55;100604.75;;;15.06;100.00
20043;BME280;10182;52.896;6.496;2023-07-31T04:15:58;100609.03;;;15.09;100.00
20043;BME280;10182;52.896;6.496;2023-07-31T04:21:00;100591.22;;;15.10;100.00
20043;BME280;10182;52.896;6.496;2023-07-31T04:26:02;100590.38;;;15.09;100.00
20043;BME280;10182;52.896;6.496;2023-07-31T04:31:05;100579.38;;;15.14;100.00
20043;BME280;10182;52.896;6.496;2023-07-31T04:36:07;100570.31;;;15.16;100.00
20043;BME280;10182;52.896;6.496;2023-07-31T04:41:09;100566.34;;;15.22;100.00
20043;BME280;10182;52.896;6.496;2023-07-31T04:46:12;100574.56;;;15.32;100.00
20043;BME280;10182;52.896;6.496;2023-07-31T04:51:13;100567.75;;;15.40;100.00
20043;BME280;10182;52.896;6.496;2023-07-31T04:56:16;100567.97;;;15.50;100.00
20043;BME280;10182;52.896;6.496;2023-07-31T05:01:19;100574.78;;;15.54;100.00
20043;BME280;10182;52.896;6.496;2023-07-31T05:06:20;100571.69;;;15.61;100.00
20043;BME280;10182;52.896;6.496;2023-07-31T05:11:22;100553.00;;;15.61;100.00
20043;BME280;10182;52.896;6.496;2023-07-31T05:16:25;100554.72;;;15.62;100.00
20043;BME280;10182;52.896;6.496;2023-07-31T05:21:27;100561.31;;;15.69;100.00
20043;BME280;10182;52.896;6.496;2023-07-31T05:26:28;100557.69;;;15.70;100.00
20043;BME280;10182;52.896;6.496;2023-07-31T05:31:31;100553.84;;;15.74;100.00
20043;BME280;10182;52.896;6.496;2023-07-31T05:36:33;100554.78;;;15.73;100.00
20043;BME280;10182;52.896;6.496;2023-07-31T05:41:35;100552.88;;;15.75;100.00
20043;BME280;10182;52.896;6.496;2023-07-31T05:46:38;100554.66;;;15.74;100.00
20043;BME280;10182;52.896;6.496;2023-07-31T05:51:40;100550.09;;;15.77;100.00
20043;BME280;10182;52.896;6.496;2023-07-31T05:56:42;100545.81;;;15.74;100.00
20043;BME280;10182;52.896;6.496;2023-07-31T06:01:45;100538.66;;;15.74;100.00
20043;BME280;10182;52.896;6.496;2023-07-31T06:06:46;100537.41;;;15.80;100.00
20043;BME280;10182;52.896;6.496;2023-07-31T06:11:48;100538.91;;;15.84;100.00
20043;BME280;10182;52.896;6.496;2023-07-31T06:16:51;100537.84;;;15.87;100.00
20043;BME280;10182;52.896;6.496;2023-07-31T06:21:53;100529.41;;;15.80;100.00
20043;BME280;10182;52.896;6.496;2023-07-31T06:26:55;100540.94;;;15.81;100.00
20043;BME280;10182;52.896;6.496;2023-07-31T06:31:59;100533.88;;;15.80;100.00
20043;BME280;10182;52.896;6.496;2023-07-31T06:37:01;100525.66;;;15.83;100.00
20043;BME280;10182;52.896;6.496;2023-07-31T06:42:03;100516.66;;;15.84;100.00
20043;BME280;10182;52.896;6.496;2023-07-31T06:47:06;100515.72;;;15.85;100.00
20043;BME280;10182;52.896;6.496;2023-07-31T06:52:08;100516.13;;;15.92;100.00
20043;BME280;10182;52.896;6.496;2023-07-31T06:57:11;100502.47;;;15.83;100.00
20043;BME280;10182;52.896;6.496;2023-07-31T07:02:14;100494.84;;;15.77;100.00
20043;BME280;10182;52.896;6.496;2023-07-31T07:07:16;100488.28;;;15.83;100.00
20043;BME280;10182;52.896;6.496;2023-07-31T07:12:17;100487.72;;;15.78;100.00
20043;BME280;10182;52.896;6.496;2023-07-31T07:17:20;100490.19;;;15.81;100.00
20043;BME280;10182;52.896;6.496;2023-07-31T07:22:22;100473.50;;;15.77;100.00
20043;BME280;10182;52.896;6.496;2023-07-31T07:27:24;100463.69;;;15.78;100.00
20043;BME280;10182;52.896;6.496;2023-07-31T07:32:27;100447.03;;;15.87;100.00
20043;BME280;10182;52.896;6.496;2023-07-31T07:37:29;100451.91;;;15.93;100.00
20043;BME280;10182;52.896;6.496;2023-07-31T07:42:30;100455.66;;;15.90;100.00
20043;BME280;10182;52.896;6.496;2023-07-31T07:47:33;100445.72;;;15.93;100.00
20043;BME280;10182;52.896;6.496;2023-07-31T07:52:35;100441.09;;;15.95;100.00
20043;BME280;10182;52.896;6.496;2023-07-31T07:57:37;100444.19;;;16.01;100.00
20043;BME280;10182;52.896;6.496;2023-07-31T08:02:40;100438.72;;;16.03;100.00
20043;BME280;10182;52.896;6.496;2023-07-31T08:07:42;100431.34;;;16.06;100.00
20043;BME280;10182;52.896;6.496;2023-07-31T08:12:43;100430.38;;;16.07;100.00
20043;BME280;10182;52.896;6.496;2023-07-31T08:17:46;100421.31;;;16.21;100.00
20043;BME280;10182;52.896;6.496;2023-07-31T08:22:48;100415.38;;;16.29;100.00
20043;BME280;10182;52.896;6.496;2023-07-31T08:27:50;100419.25;;;16.25;100.00
20043;BME280;10182;52.896;6.496;2023-07-31T08:32:54;100414.78;;;16.26;100.00
20043;BME280;10182;52.896;6.496;2023-07-31T08:37:56;100416.25;;;16.30;100.00
20043;BME280;10182;52.896;6.496;2023-07-31T08:42:58;100412.13;;;16.37;100.00
20043;BME280;10182;52.896;6.496;2023-07-31T08:48:04;100411.28;;;16.36;100.00
20043;BME280;10182;52.896;6.496;2023-07-31T08:53:06;100413.47;;;16.42;100.00
20043;BME280;10182;52.896;6.496;2023-07-31T08:58:08;100399.16;;;16.44;100.00
20043;BME280;10182;52.896;6.496;2023-07-31T09:03:13;100403.03;;;16.51;100.00
20043;BME280;10182;52.896;6.496;2023-07-31T09:08:18;100404.19;;;16.60;100.00
20043;BME280;10182;52.896;6.496;2023-07-31T09:13:20;100409.91;;;16.66;100.00
20043;BME280;10182;52.896;6.496;2023-07-31T09:18:24;100408.06;;;16.67;100.00
20043;BME280;10182;52.896;6.496;2023-07-31T09:23:25;100397.63;;;16.64;100.00
20043;BME280;10182;52.896;6.496;2023-07-31T09:28:31;100383.50;;;16.62;100.00
20043;BME280;10182;52.896;6.496;2023-07-31T09:33:54;100386.94;;;16.75;100.00
20043;BME280;10182;52.896;6.496;2023-07-31T09:38:55;100377.56;;;16.81;100.00
20043;BME280;10182;52.896;6.496;2023-07-31T09:43:57;100376.97;;;16.88;100.00
20043;BME280;10182;52.896;6.496;2023-07-31T09:49:07;100364.56;;;16.87;100.00
20043;BME280;10182;52.896;6.496;2023-07-31T09:54:10;100370.03;;;17.08;100.00
20043;BME280;10182;52.896;6.496;2023-07-31T09:59:14;100364.06;;;17.28;100.00
20043;BME280;10182;52.896;6.496;2023-07-31T10:04:18;100359.06;;;17.34;100.00
20043;BME280;10182;52.896;6.496;2023-07-31T10:09:27;100349.47;;;17.43;100.00
20043;BME280;10182;52.896;6.496;2023-07-31T10:14:32;100349.06;;;17.48;100.00
20043;BME280;10182;52.896;6.496;2023-07-31T10:19:36;100350.56;;;17.40;100.00
20043;BME280;10182;52.896;6.496;2023-07-31T10:24:38;100352.00;;;17.45;100.00
20043;BME280;10182;52.896;6.496;2023-07-31T10:29:41;100341.25;;;17.56;100.00
20043;BME280;10182;52.896;6.496;2023-07-31T10:34:46;100344.22;;;17.74;100.00
20043;BME280;10182;52.896;6.496;2023-07-31T10:39:56;100327.78;;;17.79;100.00
20043;BME280;10182;52.896;6.496;2023-07-31T10:45:00;100327.78;;;17.79;100.00
20043;BME280;10182;52.896;6.496;2023-07-31T10:50:16;100328.50;;;17.81;100.00
20043;BME280;10182;52.896;6.496;2023-07-31T10:55:39;100333.84;;;17.81;100.00
20043;BME280;10182;52.896;6.496;2023-07-31T11:00:42;100343.56;;;17.93;100.00
20043;BME280;10182;52.896;6.496;2023-07-31T11:06:00;100337.91;;;18.07;100.00
20043;BME280;10182;52.896;6.496;2023-07-31T11:11:08;100346.41;;;18.13;100.00
20043;BME280;10182;52.896;6.496;2023-07-31T11:16:11;100334.13;;;18.10;100.00
20043;BME280;10182;52.896;6.496;2023-07-31T11:21:16;100336.22;;;18.27;100.00
20043;BME280;10182;52.896;6.496;2023-07-31T11:26:19;100336.94;;;18.30;100.00
20043;BME280;10182;52.896;6.496;2023-07-31T11:31:21;100327.03;;;18.30;100.00
20043;BME280;10182;52.896;6.496;2023-07-31T11:36:24;100335.56;;;18.35;100.00
20043;BME280;10182;52.896;6.496;2023-07-31T11:41:29;100333.84;;;18.34;100.00
20043;BME280;10182;52.896;6.496;2023-07-31T11:46:30;100328.28;;;18.78;100.00
20043;BME280;10182;52.896;6.496;2023-07-31T11:51:35;100301.97;;;18.93;100.00
20043;BME280;10182;52.896;6.496;2023-07-31T11:56:37;100289.34;;;18.84;100.00
20043;BME280;10182;52.896;6.496;2023-07-31T12:01:39;100293.06;;;18.61;100.00
20043;BME280;10182;52.896;6.496;2023-07-31T12:06:43;100299.31;;;18.72;100.00
20043;BME280;10182;52.896;6.496;2023-07-31T12:11:46;100316.19;;;18.53;100.00
20043;BME280;10182;52.896;6.496;2023-07-31T12:16:53;100322.69;;;18.08;100.00
20043;BME280;10182;52.896;6.496;2023-07-31T12:21:58;100327.84;;;18.00;100.00
20043;BME280;10182;52.896;6.496;2023-07-31T12:27:00;100330.34;;;18.13;100.00
20043;BME280;10182;52.896;6.496;2023-07-31T12:32:02;100330.13;;;18.25;100.00
20043;BME280;10182;52.896;6.496;2023-07-31T12:37:05;100334.44;;;18.38;100.00
20043;BME280;10182;52.896;6.496;2023-07-31T12:42:07;100324.63;;;18.48;100.00
20043;BME280;10182;52.896;6.496;2023-07-31T12:47:09;100328.63;;;18.33;100.00
20043;BME280;10182;52.896;6.496;2023-07-31T12:52:12;100324.06;;;18.23;100.00
20043;BME280;10182;52.896;6.496;2023-07-31T12:57:14;100315.75;;;18.26;100.00
20043;BME280;10182;52.896;6.496;2023-07-31T13:02:15;100308.56;;;18.27;100.00
20043;BME280;10182;52.896;6.496;2023-07-31T13:07:18;100315.59;;;18.49;100.00
20043;BME280;10182;52.896;6.496;2023-07-31T13:12:20;100304.19;;;18.57;100.00
20043;BME280;10182;52.896;6.496;2023-07-31T13:17:22;100299.75;;;18.67;100.00
20043;BME280;10182;52.896;6.496;2023-07-31T13:22:25;100282.66;;;18.78;100.00
20043;BME280;10182;52.896;6.496;2023-07-31T13:27:27;100254.34;;;18.85;100.00
20043;BME280;10182;52.896;6.496;2023-07-31T13:32:29;100266.38;;;18.91;100.00
20043;BME280;10182;52.896;6.496;2023-07-31T13:37:32;100265.97;;;18.96;100.00
20043;BME280;10182;52.896;6.496;2023-07-31T13:42:34;100285.84;;;18.93;100.00
20043;BME280;10182;52.896;6.496;2023-07-31T13:47:36;100312.13;;;18.89;100.00
20043;BME280;10182;52.896;6.496;2023-07-31T13:52:39;100321.03;;;19.00;100.00
20043;BME280;10182;52.896;6.496;2023-07-31T13:57:40;100288.19;;;19.17;100.00
20043;BME280;10182;52.896;6.496;2023-07-31T14:02:42;100273.03;;;19.06;100.00
20043;BME280;10182;52.896;6.496;2023-07-31T14:07:45;100271.22;;;19.07;100.00
20043;BME280;10182;52.896;6.496;2023-07-31T14:12:47;100247.91;;;19.07;100.00
20043;BME280;10182;52.896;6.496;2023-07-31T14:17:48;100229.41;;;19.14;100.00
20043;BME280;10182;52.896;6.496;2023-07-31T14:22:51;100231.13;;;19.15;100.00
20043;BME280;10182;52.896;6.496;2023-07-31T14:27:53;100218.09;;;19.20;100.00
20043;BME280;10182;52.896;6.496;2023-07-31T14:32:55;100244.25;;;19.28;100.00
20043;BME280;10182;52.896;6.496;2023-07-31T14:37:58;100243.44;;;19.37;100.00
20043;BME280;10182;52.896;6.496;2023-07-31T14:43:00;100231.41;;;19.41;100.00
20043;BME280;10182;52.896;6.496;2023-07-31T14:48:01;100238.19;;;19.36;100.00
20043;BME280;10182;52.896;6.496;2023-07-31T14:53:04;100243.44;;;19.27;100.00
20043;BME280;10182;52.896;6.496;2023-07-31T14:58:06;100253.28;;;19.27;100.00
20043;BME280;10182;52.896;6.496;2023-07-31T15:03:08;100255.00;;;19.18;100.00
20043;BME280;10182;52.896;6.496;2023-07-31T15:08:11;100240.28;;;19.03;100.00
20043;BME280;10182;52.896;6.496;2023-07-31T15:13:12;100235.91;;;19.02;100.00
20043;BME280;10182;52.896;6.496;2023-07-31T15:18:14;100224.19;;;19.03;100.00
20043;BME280;10182;52.896;6.496;2023-07-31T15:23:17;100202.69;;;18.93;100.00
20043;BME280;10182;52.896;6.496;2023-07-31T15:28:19;100196.91;;;18.98;100.00
20043;BME280;10182;52.896;6.496;2023-07-31T15:33:20;100188.44;;;19.02;100.00
20043;BME280;10182;52.896;6.496;2023-07-31T15:38:23;100177.69;;;19.02;100.00
20043;BME280;10182;52.896;6.496;2023-07-31T15:43:25;100163.72;;;18.99;100.00
20043;BME280;10182;52.896;6.496;2023-07-31T15:48:27;100150.84;;;19.02;100.00
20043;BME280;10182;52.896;6.496;2023-07-31T15:53:30;100166.28;;;18.90;100.00
20043;BME280;10182;52.896;6.496;2023-07-31T15:58:32;100150.72;;;18.94;100.00
20043;BME280;10182;52.896;6.496;2023-07-31T16:03:34;100149.69;;;18.75;100.00
20043;BME280;10182;52.896;6.496;2023-07-31T16:08:37;100154.03;;;18.67;100.00
20043;BME280;10182;52.896;6.496;2023-07-31T16:13:42;100158.13;;;18.61;100.00
20043;BME280;10182;52.896;6.496;2023-07-31T16:18:43;100148.38;;;18.60;100.00
20043;BME280;10182;52.896;6.496;2023-07-31T16:23:46;100149.78;;;18.54;100.00
20043;BME280;10182;52.896;6.496;2023-07-31T16:28:48;100152.69;;;18.32;100.00
20043;BME280;10182;52.896;6.496;2023-07-31T16:33:50;100137.88;;;18.27;100.00
20043;BME280;10182;52.896;6.496;2023-07-31T16:38:53;100138.22;;;18.13;100.00
20043;BME280;10182;52.896;6.496;2023-07-31T16:43:55;100139.34;;;18.10;100.00
20043;BME280;10182;52.896;6.496;2023-07-31T16:48:56;100129.88;;;18.06;100.00
20043;BME280;10182;52.896;6.496;2023-07-31T16:53:59;100123.09;;;18.02;100.00
20043;BME280;10182;52.896;6.496;2023-07-31T16:59:01;100111.78;;;17.99;100.00
20043;BME280;10182;52.896;6.496;2023-07-31T17:04:03;100114.47;;;17.99;100.00
20043;BME280;10182;52.896;6.496;2023-07-31T17:09:06;100098.66;;;17.96;100.00
20043;BME280;10182;52.896;6.496;2023-07-31T17:14:08;100085.41;;;17.94;100.00
20043;BME280;10182;52.896;6.496;2023-07-31T17:19:10;100076.75;;;17.90;100.00
20043;BME280;10182;52.896;6.496;2023-07-31T17:24:13;100072.41;;;17.89;100.00
20043;BME280;10182;52.896;6.496;2023-07-31T17:29:15;100067.28;;;17.86;100.00
20043;BME280;10182;52.896;6.496;2023-07-31T17:34:17;100063.78;;;17.86;100.00
20043;BME280;10182;52.896;6.496;2023-07-31T17:39:20;100062.81;;;17.87;100.00
20043;BME280;10182;52.896;6.496;2023-07-31T17:44:22;100056.84;;;17.83;100.00
20043;BME280;10182;52.896;6.496;2023-07-31T17:49:23;100061.94;;;17.86;100.00
20043;BME280;10182;52.896;6.496;2023-07-31T17:54:27;100055.03;;;17.84;100.00
20043;BME280;10182;52.896;6.496;2023-07-31T17:59:28;100054.59;;;17.79;100.00
20043;BME280;10182;52.896;6.496;2023-07-31T18:04:30;100046.81;;;17.75;100.00
20043;BME280;10182;52.896;6.496;2023-07-31T18:09:33;100042.59;;;17.73;100.00
20043;BME280;10182;52.896;6.496;2023-07-31T18:14:35;100036.22;;;17.74;100.00
20043;BME280;10182;52.896;6.496;2023-07-31T18:19:38;100046.78;;;17.97;100.00
20043;BME280;10182;52.896;6.496;2023-07-31T18:24:41;100032.06;;;17.81;100.00
20043;BME280;10182;52.896;6.496;2023-07-31T18:29:42;100046.41;;;17.80;100.00
20043;BME280;10182;52.896;6.496;2023-07-31T18:34:44;100030.63;;;17.77;100.00
20043;BME280;10182;52.896;6.496;2023-07-31T18:39:47;100026.38;;;17.74;100.00
20043;BME280;10182;52.896;6.496;2023-07-31T18:44:49;100005.34;;;17.70;100.00
20043;BME280;10182;52.896;6.496;2023-07-31T18:49:50;100007.03;;;17.61;100.00
20043;BME280;10182;52.896;6.496;2023-07-31T18:54:54;100012.63;;;17.48;100.00
20043;BME280;10182;52.896;6.496;2023-07-31T18:59:55;100000.72;;;17.41;100.00
20043;BME280;10182;52.896;6.496;2023-07-31T19:04:57;99996.16;;;17.32;100.00
20043;BME280;10182;52.896;6.496;2023-07-31T19:10:00;100006.81;;;17.22;100.00
20043;BME280;10182;52.896;6.496;2023-07-31T19:15:03;99997.13;;;17.21;100.00
20043;BME280;10182;52.896;6.496;2023-07-31T19:20:06;100005.34;;;17.08;100.00
20043;BME280;10182;52.896;6.496;2023-07-31T19:25:09;100006.59;;;17.04;100.00
20043;BME280;10182;52.896;6.496;2023-07-31T19:30:11;99982.91;;;16.99;100.00
20043;BME280;10182;52.896;6.496;2023-07-31T19:35:14;100002.88;;;16.95;100.00
20043;BME280;10182;52.896;6.496;2023-07-31T19:40:18;99981.50;;;16.95;100.00
20043;BME280;10182;52.896;6.496;2023-07-31T19:45:21;99974.44;;;16.94;100.00
20043;BME280;10182;52.896;6.496;2023-07-31T19:50:23;99974.06;;;16.87;100.00
20043;BME280;10182;52.896;6.496;2023-07-31T19:55:26;99972.03;;;16.80;100.00
20043;BME280;10182;52.896;6.496;2023-07-31T20:00:29;99969.63;;;16.77;100.00
20043;BME280;10182;52.896;6.496;2023-07-31T20:05:31;99972.91;;;16.80;100.00
20043;BME280;10182;52.896;6.496;2023-07-31T20:10:34;99937.16;;;16.81;100.00
20043;BME280;10182;52.896;6.496;2023-07-31T20:15:36;99957.84;;;16.79;100.00
20043;BME280;10182;52.896;6.496;2023-07-31T20:20:38;99941.06;;;16.77;100.00
20043;BME280;10182;52.896;6.496;2023-07-31T20:25:41;99932.97;;;16.67;100.00
20043;BME280;10182;52.896;6.496;2023-07-31T20:30:43;99932.91;;;16.57;100.00
20043;BME280;10182;52.896;6.496;2023-07-31T20:35:45;99940.75;;;16.49;100.00
20043;BME280;10182;52.896;6.496;2023-07-31T20:40:49;99926.22;;;16.42;100.00
20043;BME280;10182;52.896;6.496;2023-07-31T20:45:51;99916.47;;;16.41;100.00
20043;BME280;10182;52.896;6.496;2023-07-31T20:50:53;99924.50;;;16.41;100.00
20043;BME280;10182;52.896;6.496;2023-07-31T20:55:56;99917.59;;;16.38;100.00
20043;BME280;10182;52.896;6.496;2023-07-31T21:00:58;99905.66;;;16.42;100.00
20043;BME280;10182;52.896;6.496;2023-07-31T21:06:00;99909.56;;;16.38;100.00
20043;BME280;10182;52.896;6.496;2023-07-31T21:11:03;99899.84;;;16.37;100.00
20043;BME280;10182;52.896;6.496;2023-07-31T21:16:05;99895.09;;;16.41;100.00
20043;BME280;10182;52.896;6.496;2023-07-31T21:21:06;99878.09;;;16.42;100.00
20043;BME280;10182;52.896;6.496;2023-07-31T21:26:10;99874.47;;;16.43;100.00
20043;BME280;10182;52.896;6.496;2023-07-31T21:31:13;99876.41;;;16.41;100.00
20043;BME280;10182;52.896;6.496;2023-07-31T21:36:15;99879.34;;;16.38;100.00
20043;BME280;10182;52.896;6.496;2023-07-31T21:41:18;99861.47;;;16.38;100.00
20043;BME280;10182;52.896;6.496;2023-07-31T21:46:20;99855.16;;;16.39;100.00
20043;BME280;10182;52.896;6.496;2023-07-31T21:51:22;99850.66;;;16.40;100.00
20043;BME280;10182;52.896;6.496;2023-07-31T21:56:25;99832.81;;;16.40;100.00
20043;BME280;10182;52.896;6.496;2023-07-31T22:01:27;99836.31;;;16.41;100.00
20043;BME280;10182;52.896;6.496;2023-07-31T22:06:28;99819.56;;;16.39;100.00
20043;BME280;10182;52.896;6.496;2023-07-31T22:11:31;99814.47;;;16.36;100.00
20043;BME280;10182;52.896;6.496;2023-07-31T22:16:33;99810.97;;;16.35;100.00
20043;BME280;10182;52.896;6.496;2023-07-31T22:21:36;99823.03;;;16.30;100.00
20043;BME280;10182;52.896;6.496;2023-07-31T22:26:39;99812.72;;;16.25;100.00
20043;BME280;10182;52.896;6.496;2023-07-31T22:31:41;99804.28;;;16.20;100.00
20043;BME280;10182;52.896;6.496;2023-07-31T22:36:43;99795.53;;;16.18;100.00
20043;BME280;10182;52.896;6.496;2023-07-31T22:41:46;99801.59;;;16.20;100.00
20043;BME280;10182;52.896;6.496;2023-07-31T22:46:47;99787.50;;;16.18;100.00
20043;BME280;10182;52.896;6.496;2023-07-31T22:51:49;99782.44;;;16.15;100.00
20043;BME280;10182;52.896;6.496;2023-07-31T22:56:52;99774.28;;;16.16;100.00
20043;BME280;10182;52.896;6.496;2023-07-31T23:01:55;99771.63;;;16.16;100.00
20043;BME280;10182;52.896;6.496;2023-07-31T23:06:57;99756.69;;;16.14;100.00
20043;BME280;10182;52.896;6.496;2023-07-31T23:12:00;99763.16;;;16.11;100.00
20043;BME280;10182;52.896;6.496;2023-07-31T23:17:02;99757.53;;;16.14;100.00
20043;BME280;10182;52.896;6.496;2023-07-31T23:22:04;99753.19;;;16.13;100.00
20043;BME280;10182;52.896;6.496;2023-07-31T23:27:08;99755.41;;;16.08;100.00
20043;BME280;10182;52.896;6.496;2023-07-31T23:32:09;99752.72;;;16.08;100.00
20043;BME280;10182;52.896;6.496;2023-07-31T23:37:11;99729.94;;;16.04;100.00
20043;BME280;10182;52.896;6.496;2023-07-31T23:42:15;99727.78;;;15.98;100.00
20043;BME280;10182;52.896;6.496;2023-07-31T23:47:16;99723.56;;;15.95;100.00
20043;BME280;10182;52.896;6.496;2023-07-31T23:52:18;99732.69;;;15.93;100.00
20043;BME280;10182;52.896;6.496;2023-07-31T23:57:21;99718.59;;;15.90;100.00
